Time;durP1;ratioP1;P1;durP2;ratioP2;P2;SDS_P1;SDS_P2;PMS_P1;PMS_P2;Temp;Humidity;BMP_temperature;BMP_pressure;BME280_temperature;BME280_humidity;BME280_pressure;Samples;Min_cycle;Max_cycle;Signal;HPM_P1;HPM_P2
2023/07/12 04:32:29;;;;;;;;;0.00;0.00;;;;;21.60;49.67;101089.44;5135462;23;46439;-91
2023/07/12 04:34:55;;;;;;;;;5.33;0.67;;;;;21.57;49.80;101073.81;4869571;29;45481;-93
2023/07/12 04:37:20;;;;;;;;;1.00;1.00;;;;;21.53;49.97;101082.94;4886331;29;45461;-93
2023/07/12 04:39:45;;;;;;;;;2.33;1.00;;;;;21.50;50.02;101078.72;4887797;29;45554;-92
2023/07/12 04:42:11;;;;;;;;;1.33;1.00;;;;;21.38;49.65;101088.44;4886339;29;47985;-93
2023/07/12 04:44:36;;;;;;;;;2.33;1.00;;;;;21.27;49.23;101085.78;4886516;29;45371;-92
2023/07/12 04:47:02;;;;;;;;;1.67;1.00;;;;;21.24;49.45;101092.13;4887642;29;45406;-96
2023/07/12 04:49:27;;;;;;;;;0.67;0.67;;;;;21.17;48.75;101083.00;4886191;29;45413;-93
2023/07/12 04:51:53;;;;;;;;;1.00;1.00;;;;;21.13;49.22;101098.25;4886712;29;47262;-93
2023/07/12 04:54:18;;;;;;;;;1.00;1.00;;;;;21.09;49.51;101099.44;4904739;29;45279;-94
2023/07/12 04:56:43;;;;;;;;;1.25;1.00;;;;;21.07;48.90;101093.44;4886907;29;45458;-93
2023/07/12 04:59:09;;;;;;;;;2.00;1.00;;;;;21.04;49.43;101098.94;4903871;29;45221;-93
2023/07/12 05:01:34;;;;;;;;;2.00;0.00;;;;;21.07;49.28;101104.84;4903127;29;48124;-93
2023/07/12 05:03:59;;;;;;;;;1.33;1.00;;;;;20.97;49.14;101098.59;4903104;29;45389;-92
2023/07/12 05:06:25;;;;;;;;;1.00;1.00;;;;;21.08;48.99;101121.56;4886610;29;45492;-94
2023/07/12 05:08:51;;;;;;;;;2.67;1.00;;;;;21.02;49.49;101122.84;4903865;29;45377;-94
2023/07/12 05:11:16;;;;;;;;;1.00;0.33;;;;;20.89;49.05;101109.72;4885783;29;47108;-93
2023/07/12 05:13:42;;;;;;;;;3.00;1.00;;;;;20.96;49.24;101129.47;4873151;29;45475;-93
2023/07/12 05:16:07;;;;;;;;;1.00;1.00;;;;;20.98;49.42;101132.00;4885254;29;45487;-93
2023/07/12 05:18:34;;;;;;;;;3.33;2.00;;;;;20.94;49.31;101138.47;4893224;29;45358;-92
2023/07/12 05:20:59;;;;;;;;;1.67;0.33;;;;;20.94;49.48;101146.41;4885011;29;47071;-93
2023/07/12 05:23:24;;;;;;;;;2.00;1.00;;;;;20.79;49.33;101132.47;4903851;29;45374;-93
2023/07/12 05:25:53;;;;;;;;;4.00;1.33;;;;;20.83;49.65;101145.34;4903178;28;45355;-93
2023/07/12 05:28:47;;;;;;;;;2.67;2.00;;;;;20.70;49.55;101139.28;4891835;28;45397;-94
2023/07/12 05:31:15;;;;;;;;;1.67;1.00;;;;;20.75;49.82;101160.97;4880009;29;46810;-87
2023/07/12 05:33:43;;;;;;;;;1.33;1.00;;;;;20.76;49.53;101175.00;4861802;29;45489;-87
2023/07/12 05:36:09;;;;;;;;;2.50;1.00;;;;;20.68;49.84;101157.91;4880875;29;45732;-87
2023/07/12 05:38:34;;;;;;;;;2.00;2.00;;;;;20.68;49.66;101154.41;4851866;29;45608;-87
2023/07/12 05:41:00;;;;;;;;;2.25;2.00;;;;;20.71;49.98;101167.41;4865073;29;47249;-87
2023/07/12 05:43:25;;;;;;;;;1.00;1.00;;;;;20.66;49.54;101169.53;4880799;29;45419;-87
2023/07/12 05:45:51;;;;;;;;;1.75;1.00;;;;;20.58;49.80;101159.53;4863845;29;45294;-87
2023/07/12 05:48:17;;;;;;;;;0.75;0.75;;;;;20.58;49.35;101169.25;4881091;29;45330;-87
2023/07/12 05:50:43;;;;;;;;;1.00;1.00;;;;;20.52;49.80;101159.97;4882132;29;46249;-87
2023/07/12 05:53:08;;;;;;;;;1.00;1.00;;;;;20.56;49.61;101161.44;4879374;29;45746;-87
2023/07/12 05:55:37;;;;;;;;;2.75;2.00;;;;;20.61;50.33;101158.47;4860682;29;45432;-87
2023/07/12 05:58:02;;;;;;;;;1.00;1.00;;;;;20.60;49.78;101167.34;4862441;29;45437;-87
2023/07/12 06:00:28;;;;;;;;;1.67;1.33;;;;;20.61;49.59;101155.81;4869221;29;45774;-88
2023/07/12 06:02:53;;;;;;;;;1.50;1.50;;;;;20.75;49.40;101181.25;4879647;29;45655;-93
2023/07/12 06:05:19;;;;;;;;;1.67;1.67;;;;;20.73;49.73;101180.53;4901273;29;45338;-94
2023/07/12 06:07:45;;;;;;;;;1.67;1.00;;;;;20.68;49.52;101168.47;4883627;29;45692;-92
2023/07/12 06:10:11;;;;;;;;;2.00;2.00;;;;;20.81;49.70;101188.75;4901696;29;46520;-92
2023/07/12 06:12:38;;;;;;;;;2.00;2.00;;;;;20.79;49.32;101195.94;4900388;29;45726;-93
2023/07/12 06:15:04;;;;;;;;;1.67;1.00;;;;;20.70;49.53;101181.59;4903497;29;45292;-91
2023/07/12 06:17:29;;;;;;;;;0.33;0.33;;;;;20.74;49.39;101182.22;4886279;29;45332;-93
2023/07/12 06:19:55;;;;;;;;;2.00;1.00;;;;;20.71;49.34;101164.78;4899668;29;47305;-93
2023/07/12 06:22:20;;;;;;;;;1.00;1.00;;;;;20.75;49.24;101179.47;4896914;29;45831;-92
2023/07/12 06:24:46;;;;;;;;;1.00;1.00;;;;;20.77;49.22;101176.69;4904782;28;45512;-92
2023/07/12 06:27:13;;;;;;;;;1.00;1.00;;;;;20.90;48.85;101189.91;4885309;29;45394;-94
2023/07/12 06:29:39;;;;;;;;;1.00;1.00;;;;;20.92;49.01;101195.94;4885721;29;46627;-95
2023/07/12 06:32:05;;;;;;;;;2.00;1.67;;;;;21.04;48.62;101195.03;4885010;29;45408;-94
2023/07/12 06:34:31;;;;;;;;;2.67;2.00;;;;;21.08;48.60;101206.25;4899448;29;45521;-95
2023/07/12 06:36:56;;;;;;;;;1.00;1.00;;;;;21.06;48.41;101198.41;4901915;28;45507;-95
2023/07/12 06:39:21;;;;;;;;;1.33;1.33;;;;;21.10;48.10;101204.31;4901923;28;46476;-93
2023/07/12 06:41:47;;;;;;;;;1.33;1.33;;;;;21.05;47.85;101199.38;4882176;29;45453;-93
2023/07/12 06:44:12;;;;;;;;;1.00;1.00;;;;;21.02;47.87;101212.81;4885182;29;45479;-93
2023/07/12 06:46:37;;;;;;;;;2.50;2.00;;;;;20.96;48.42;101213.25;4901288;29;45291;-94
2023/07/12 06:49:03;;;;;;;;;3.00;0.00;;;;;21.03;48.28;101208.38;4901620;29;45498;-94
2023/07/12 06:56:39;;;;;;;;;3.67;1.67;;;;;21.12;47.69;101217.44;3594296;23;46305;-88
2023/07/12 06:59:04;;;;;;;;;2.67;2.00;;;;;21.15;47.93;101219.88;4913801;28;46031;-88
2023/07/12 07:01:30;;;;;;;;;2.00;1.00;;;;;21.16;48.31;101225.03;4899729;28;45362;-88
2023/07/12 07:03:55;;;;;;;;;2.67;1.00;;;;;21.19;48.32;101223.97;4908559;28;45354;-88
2023/07/12 07:06:21;;;;;;;;;1.00;1.00;;;;;21.19;48.01;101222.16;4903269;28;45479;-88
2023/07/12 07:08:47;;;;;;;;;2.00;1.33;;;;;21.25;48.38;101230.63;4901776;28;47466;-88
2023/07/12 07:11:12;;;;;;;;;1.00;1.00;;;;;21.26;48.33;101221.72;4911808;28;45262;-87
2023/07/12 07:13:38;;;;;;;;;1.33;1.33;;;;;21.27;47.74;101233.97;4888736;28;45423;-88
2023/07/12 07:16:03;;;;;;;;;1.00;0.33;;;;;21.20;47.85;101221.19;4910458;28;45578;-87
2023/07/12 07:18:29;;;;;;;;;2.33;1.00;;;;;21.26;47.11;101237.59;4899202;28;46958;-88
2023/07/12 07:20:54;;;;;;;;;1.00;1.00;;;;;21.11;47.40;101218.41;4915185;28;45526;-88
2023/07/12 07:23:20;;;;;;;;;1.00;1.00;;;;;21.25;47.44;101238.56;4907906;28;45426;-88
2023/07/12 07:25:46;;;;;;;;;2.33;2.33;;;;;21.28;47.06;101235.69;4915005;28;45480;-89
2023/07/12 07:28:12;;;;;;;;;2.00;2.00;;;;;21.27;47.42;101240.13;4890102;28;47115;-88
2023/07/12 07:30:37;;;;;;;;;1.00;1.00;;;;;21.31;47.50;101238.09;4916013;28;45612;-89
2023/07/12 07:33:03;;;;;;;;;1.00;1.00;;;;;21.30;47.01;101239.06;4903904;28;45418;-88
2023/07/12 07:35:28;;;;;;;;;2.00;2.00;;;;;21.26;47.35;101229.66;4903414;28;45799;-88
2023/07/12 07:37:54;;;;;;;;;4.00;3.00;;;;;21.31;46.63;101235.44;4899116;29;47451;-87
2023/07/12 07:40:19;;;;;;;;;1.33;1.00;;;;;21.22;46.70;101229.03;4912139;28;45567;-89
2023/07/12 07:42:45;;;;;;;;;1.00;1.00;;;;;21.32;46.58;101243.28;4917674;28;45334;-88
2023/07/12 07:45:11;;;;;;;;;0.67;0.67;;;;;21.32;46.35;101248.56;4902596;28;45390;-88
2023/07/12 07:47:37;;;;;;;;;3.00;1.00;;;;;21.29;46.46;101242.66;4912531;28;47253;-88
2023/07/12 07:50:05;;;;;;;;;1.33;1.33;;;;;21.32;46.79;101237.13;4908178;28;46390;-88
2023/07/12 07:52:30;;;;;;;;;1.00;1.00;;;;;21.38;46.24;101244.63;4896054;28;45468;-88
2023/07/12 07:54:56;;;;;;;;;2.00;1.67;;;;;21.42;46.28;101261.16;4887608;28;45487;-88
2023/07/12 07:57:22;;;;;;;;;1.67;1.00;;;;;21.43;46.38;101253.06;4886752;28;47010;-88
2023/07/12 07:59:48;;;;;;;;;1.00;1.00;;;;;21.51;45.81;101246.38;4891615;28;45387;-87
2023/07/12 08:02:13;;;;;;;;;1.33;0.00;;;;;21.45;45.92;101227.34;4918670;28;45343;-88
2023/07/12 08:04:38;;;;;;;;;2.00;1.33;;;;;21.53;46.22;101224.13;4902153;28;45419;-89
2023/07/12 08:07:05;;;;;;;;;2.33;1.00;;;;;21.70;46.23;101241.41;4909289;28;45601;-88
2023/07/12 08:09:33;;;;;;;;;2.67;2.00;;;;;21.85;45.96;101255.28;4900121;29;45412;-88
2023/07/12 08:11:58;;;;;;;;;2.67;2.00;;;;;21.89;45.46;101251.44;4913766;28;45503;-88
2023/07/12 08:14:24;;;;;;;;;1.00;1.00;;;;;21.84;45.10;101250.13;4902133;28;46249;-88
2023/07/12 08:16:49;;;;;;;;;1.00;1.00;;;;;21.86;45.75;101248.19;4883401;28;47626;-87
2023/07/12 08:19:18;;;;;;;;;2.00;2.00;;;;;21.85;45.60;101231.44;4917394;28;45283;-88
2023/07/12 08:21:43;;;;;;;;;2.00;2.00;;;;;22.07;45.56;101256.28;4917810;28;45463;-88
2023/07/12 08:24:09;;;;;;;;;3.00;1.00;;;;;22.11;45.32;101247.16;4901655;28;45652;-88
2023/07/12 08:26:34;;;;;;;;;1.33;1.33;;;;;22.10;45.39;101239.31;4901250;28;47155;-88
2023/07/12 08:28:59;;;;;;;;;0.00;0.00;;;;;22.19;45.57;101251.84;4901914;28;45458;-87
2023/07/12 08:31:25;;;;;;;;;1.00;1.00;;;;;22.28;44.91;101250.31;4888734;28;45426;-88
2023/07/12 08:33:51;;;;;;;;;2.67;1.67;;;;;22.35;44.61;101248.03;4887516;29;45644;-88
2023/07/12 08:36:16;;;;;;;;;3.00;0.67;;;;;22.39;44.14;101247.66;4914759;28;46514;-87
2023/07/12 08:38:42;;;;;;;;;1.67;1.00;;;;;22.42;44.51;101254.53;4893366;28;45302;-88
2023/07/12 08:41:16;;;;;;;;;1.00;1.00;;;;;22.43;43.99;101249.09;4912982;28;45441;-88
2023/07/12 08:43:42;;;;;;;;;1.00;1.00;;;;;22.38;43.42;101242.47;4904836;28;45353;-88
2023/07/12 08:46:16;;;;;;;;;0.33;0.33;;;;;22.42;43.61;101265.97;4902835;28;45718;-88
2023/07/12 08:48:42;;;;;;;;;2.00;0.00;;;;;22.44;43.89;101265.84;4882005;29;45389;-87
2023/07/12 08:51:17;;;;;;;;;3.67;0.67;;;;;22.44;43.59;101257.88;4882640;29;45349;-88
2023/07/12 08:53:44;;;;;;;;;1.00;1.00;;;;;22.51;43.37;101266.22;4899190;29;45390;-87
2023/07/12 08:56:13;;;;;;;;;1.00;1.00;;;;;22.54;43.14;101272.13;4899253;28;45731;-87
2023/07/12 08:58:49;;;;;;;;;0.33;0.33;;;;;22.64;43.27;101266.94;4881416;29;45378;-88
2023/07/12 09:01:36;;;;;;;;;2.00;0.00;;;;;22.73;42.87;101270.69;4890061;28;45436;-88
2023/07/12 09:04:23;;;;;;;;;0.67;0.33;;;;;22.78;43.19;101262.38;4917860;28;45461;-87
2023/07/12 09:06:59;;;;;;;;;1.67;0.33;;;;;22.94;43.06;101272.59;4899503;28;46432;-87
2023/07/12 09:09:26;;;;;;;;;2.67;0.33;;;;;22.98;42.32;101270.53;4898277;29;45359;-87
2023/07/12 09:11:52;;;;;;;;;1.67;0.33;;;;;23.07;42.76;101278.59;4894797;28;45495;-87
2023/07/12 09:14:20;;;;;;;;;0.33;0.33;;;;;23.15;42.67;101274.47;4893330;28;45397;-88
2023/07/12 09:16:48;;;;;;;;;0.00;0.00;;;;;23.28;42.32;101279.63;4895906;28;47827;-88
2023/07/12 09:19:13;;;;;;;;;0.33;0.00;;;;;23.42;42.07;101276.69;4881386;29;45360;-87
2023/07/12 09:21:39;;;;;;;;;0.00;0.00;;;;;23.48;41.65;101275.38;4900145;28;45529;-88
2023/07/12 09:24:18;;;;;;;;;0.00;0.00;;;;;23.52;41.85;101266.19;4885119;29;45414;-87
2023/07/12 09:26:44;;;;;;;;;1.00;0.00;;;;;23.66;42.03;101280.09;4884527;29;48655;-87
2023/07/12 09:29:21;;;;;;;;;0.00;0.00;;;;;23.75;41.28;101274.03;4893865;28;45379;-87
2023/07/12 09:31:47;;;;;;;;;0.00;0.00;;;;;23.84;41.37;101283.03;4901700;28;45247;-88
2023/07/12 09:34:22;;;;;;;;;1.67;0.00;;;;;23.87;41.06;101286.28;4893437;29;45675;-87
2023/07/12 09:36:55;;;;;;;;;0.00;0.00;;;;;23.97;41.00;101280.19;4884181;29;47157;-87
2023/07/12 09:39:21;;;;;;;;;0.00;0.00;;;;;24.05;40.95;101279.53;4901961;28;45445;-88
2023/07/12 09:41:50;;;;;;;;;0.00;0.00;;;;;24.11;40.56;101295.00;4903035;28;45819;-88
2023/07/12 09:44:15;;;;;;;;;0.00;0.00;;;;;24.10;40.40;101286.16;4919193;28;45429;-88
2023/07/12 09:46:53;;;;;;;;;0.67;0.00;;;;;24.17;40.36;101298.94;4889304;28;46758;-87
2023/07/12 09:49:27;;;;;;;;;2.00;0.67;;;;;24.19;40.13;101289.84;4917365;28;45399;-88
2023/07/12 09:52:17;;;;;;;;;0.00;0.00;;;;;24.14;40.32;101289.41;4906318;28;45351;-87
2023/07/12 09:54:50;;;;;;;;;1.33;0.67;;;;;24.24;39.66;101300.94;4897473;28;45277;-87
2023/07/12 09:57:53;;;;;;;;;0.33;0.33;;;;;24.26;39.72;101300.81;4902028;28;45505;-88
2023/07/12 10:00:42;;;;;;;;;2.00;0.00;;;;;24.24;39.57;101298.28;4916492;28;45459;-87
2023/07/12 10:03:27;;;;;;;;;0.00;0.00;;;;;24.23;39.33;101290.44;4896763;28;45448;-87
2023/07/12 10:06:28;;;;;;;;;0.00;0.00;;;;;24.31;39.01;101298.59;4905548;28;45609;-87
2023/07/12 10:09:01;;;;;;;;;0.00;0.00;;;;;24.32;38.51;101279.00;4870081;28;48096;-87
2023/07/12 10:11:48;;;;;;;;;1.00;1.00;;;;;24.39;38.37;101285.47;4890564;28;45580;-87
2023/07/12 10:14:17;;;;;;;;;1.00;0.00;;;;;24.48;38.94;101283.84;4916602;28;45525;-87
2023/07/12 10:16:53;;;;;;;;;2.00;0.00;;;;;24.59;38.83;101295.34;4899483;28;45570;-87
2023/07/12 10:19:30;;;;;;;;;1.00;0.00;;;;;24.67;37.89;101284.91;4896503;28;48957;-87
2023/07/12 10:22:00;;;;;;;;;0.00;0.00;;;;;24.73;38.13;101270.19;4905617;28;45416;-87
2023/07/12 10:24:35;;;;;;;;;0.00;0.00;;;;;24.90;37.38;101285.53;4912874;28;45310;-88
2023/07/12 10:27:06;;;;;;;;;0.00;0.00;;;;;24.92;37.71;101280.09;4917152;28;45381;-87
2023/07/12 10:29:44;;;;;;;;;0.00;0.00;;;;;25.05;36.69;101280.66;4908787;28;45699;-88
2023/07/12 10:32:49;;;;;;;;;0.00;0.00;;;;;25.14;36.81;101280.81;4913464;28;45410;-87
2023/07/12 10:35:23;;;;;;;;;1.67;0.00;;;;;25.26;36.84;101266.41;4874004;28;45432;-87
2023/07/12 10:38:12;;;;;;;;;0.00;0.00;;;;;25.51;36.35;101269.50;4886766;29;45402;-87
2023/07/12 10:40:44;;;;;;;;;0.67;0.67;;;;;25.62;36.16;101276.53;4885134;28;47525;-88
2023/07/12 10:43:35;;;;;;;;;0.00;0.00;;;;;25.66;36.68;101274.41;4902179;28;45867;-87
2023/07/12 10:46:06;;;;;;;;;1.00;0.00;;;;;25.63;35.82;101269.38;4901696;28;45325;-87
2023/07/12 10:48:32;;;;;;;;;0.00;0.00;;;;;25.67;36.30;101271.63;4919693;28;45311;-88
2023/07/12 10:51:35;;;;;;;;;2.00;0.00;;;;;25.73;35.85;101278.22;4918770;28;45544;-87
2023/07/12 10:54:03;;;;;;;;;0.00;0.00;;;;;25.84;35.03;101266.53;4883182;29;45323;-87
2023/07/12 10:56:52;;;;;;;;;0.33;0.00;;;;;26.01;35.29;101271.13;4879576;29;45271;-87
2023/07/12 10:59:32;;;;;;;;;0.00;0.00;;;;;26.19;34.83;101273.03;4880451;29;45576;-87
2023/07/12 11:02:03;;;;;;;;;0.00;0.00;;;;;26.34;34.87;101265.44;4881628;29;45972;-87
2023/07/12 11:04:29;;;;;;;;;0.00;0.00;;;;;26.47;34.37;101264.28;4879567;29;45384;-87
2023/07/12 11:06:58;;;;;;;;;0.00;0.00;;;;;26.59;33.79;101280.91;4883594;29;45271;-87
2023/07/12 11:09:48;;;;;;;;;1.00;0.00;;;;;26.68;34.01;101272.88;4900618;29;45297;-89
2023/07/12 11:12:16;;;;;;;;;0.00;0.00;;;;;26.78;33.80;101267.47;4899926;29;45608;-87
2023/07/12 11:14:44;;;;;;;;;0.00;0.00;;;;;26.86;33.47;101271.22;4898662;29;45325;-88
2023/07/12 11:17:20;;;;;;;;;0.00;0.00;;;;;26.98;33.60;101256.69;4900186;29;45244;-88
2023/07/12 11:20:08;;;;;;;;;0.00;0.00;;;;;27.13;33.99;101254.34;4898871;29;45430;-88
2023/07/12 11:22:59;;;;;;;;;0.33;0.00;;;;;27.31;33.22;101251.66;4887616;29;45874;-87
2023/07/12 11:25:43;;;;;;;;;0.67;0.67;;;;;27.57;33.42;101264.25;4896699;29;45452;-87
2023/07/12 11:28:21;;;;;;;;;0.00;0.00;;;;;27.72;33.33;101261.88;4877835;29;45257;-88
2023/07/12 11:31:02;;;;;;;;;1.00;0.00;;;;;27.81;33.04;101253.94;4897533;28;45679;-88
2023/07/12 11:33:32;;;;;;;;;0.33;0.33;;;;;27.90;32.52;101249.47;4885361;29;48030;-87
2023/07/12 11:36:19;;;;;;;;;2.00;0.00;;;;;27.98;31.57;101252.19;4885373;29;45675;-88
2023/07/12 11:38:46;;;;;;;;;1.00;0.00;;;;;27.95;31.92;101247.16;4896130;29;45423;-87
2023/07/12 11:41:18;;;;;;;;;0.00;0.00;;;;;28.03;31.79;101257.88;4890046;28;45587;-87
2023/07/12 11:43:45;;;;;;;;;1.67;0.00;;;;;28.00;31.04;101248.34;4882084;29;48308;-88
2023/07/12 11:46:17;;;;;;;;;0.00;0.00;;;;;27.95;31.18;101236.47;4893365;28;45552;-87
2023/07/12 11:48:49;;;;;;;;;1.00;0.00;;;;;27.96;31.54;101243.47;4881847;29;45407;-87
2023/07/12 11:51:26;;;;;;;;;0.00;0.00;;;;;28.11;30.77;101257.94;4879648;29;45450;-87
2023/07/12 11:53:55;;;;;;;;;1.00;0.00;;;;;28.14;30.37;101256.78;4883986;29;46647;-87
2023/07/12 11:56:20;;;;;;;;;0.67;0.00;;;;;28.13;31.27;101236.38;4882535;28;45616;-87
2023/07/12 11:58:46;;;;;;;;;0.00;0.00;;;;;28.23;31.07;101241.66;4893610;29;45626;-87
2023/07/12 12:01:15;;;;;;;;;0.00;0.00;;;;;28.39;31.17;101249.75;4890665;29;45710;-87
2023/07/12 12:03:40;;;;;;;;;0.00;0.00;;;;;28.50;30.16;101243.25;4892452;29;46480;-87
2023/07/12 12:06:08;;;;;;;;;0.00;0.00;;;;;28.55;30.44;101245.44;4887558;29;46073;-88
2023/07/12 12:08:34;;;;;;;;;0.00;0.00;;;;;28.67;29.90;101252.19;4894911;29;45502;-88
2023/07/12 12:11:00;;;;;;;;;0.00;0.00;;;;;28.62;30.26;101234.94;4891274;29;45564;-87
2023/07/12 12:13:30;;;;;;;;;1.00;0.00;;;;;28.83;29.95;101255.06;4889372;29;45383;-88
2023/07/12 12:16:18;;;;;;;;;0.33;0.33;;;;;28.92;30.12;101249.59;4893803;29;45792;-87
2023/07/12 12:18:59;;;;;;;;;0.00;0.00;;;;;29.12;29.82;101260.00;4882901;29;45332;-87
2023/07/12 12:21:26;;;;;;;;;0.67;0.00;;;;;29.26;30.13;101263.03;4887783;29;45533;-87
2023/07/12 12:24:06;;;;;;;;;1.00;0.00;;;;;29.34;29.61;101245.09;4892268;29;46485;-87
2023/07/12 12:26:32;;;;;;;;;0.00;0.00;;;;;29.31;29.11;101242.78;4897296;29;45311;-87
2023/07/12 12:29:00;;;;;;;;;0.00;0.00;;;;;29.34;29.16;101252.28;4897929;29;45544;-87
2023/07/12 12:31:31;;;;;;;;;0.67;0.33;;;;;29.35;29.00;101235.25;4892534;29;45724;-87
2023/07/12 12:34:05;;;;;;;;;0.00;0.00;;;;;29.40;28.67;101243.63;4896054;29;45730;-88
2023/07/12 12:36:33;;;;;;;;;0.00;0.00;;;;;29.37;28.63;101241.25;4881949;29;45301;-87
2023/07/12 12:39:00;;;;;;;;;0.33;0.00;;;;;29.36;28.76;101242.28;4886025;29;45372;-87
2023/07/12 12:41:45;;;;;;;;;0.00;0.00;;;;;29.26;28.50;101233.56;4891819;29;45399;-88
2023/07/12 12:44:10;;;;;;;;;1.00;0.00;;;;;29.36;28.92;101244.09;4885756;29;47222;-87
2023/07/12 12:46:38;;;;;;;;;0.00;0.00;;;;;29.41;28.18;101250.66;4910817;28;45350;-88
2023/07/12 12:49:16;;;;;;;;;0.00;0.00;;;;;29.47;28.54;101241.94;4897063;29;45378;-87
2023/07/12 12:51:41;;;;;;;;;0.00;0.00;;;;;29.51;28.05;101236.25;4884339;29;45250;-87
2023/07/12 12:54:09;;;;;;;;;1.00;0.00;;;;;29.46;28.66;101237.56;4895512;29;47182;-87
2023/07/12 12:56:35;;;;;;;;;0.00;0.00;;;;;29.41;28.73;101231.88;4900410;29;45301;-87
2023/07/12 12:59:03;;;;;;;;;0.00;0.00;;;;;29.55;28.54;101249.16;4899376;29;45564;-87
2023/07/12 13:01:28;;;;;;;;;0.00;0.00;;;;;29.57;27.58;101243.63;4891994;29;46223;-88
2023/07/12 13:03:54;;;;;;;;;0.00;0.00;;;;;29.61;27.99;101228.88;4898068;29;46953;-87
2023/07/12 13:06:20;;;;;;;;;0.00;0.00;;;;;29.62;27.77;101229.72;4895542;29;45470;-87
2023/07/12 13:08:45;;;;;;;;;2.33;1.00;;;;;29.83;27.67;101229.16;4888587;29;45343;-87
2023/07/12 13:11:11;;;;;;;;;0.00;0.00;;;;;29.94;27.76;101230.66;4896111;29;45615;-88
2023/07/12 13:13:36;;;;;;;;;0.00;0.00;;;;;30.05;27.43;101232.13;4889699;29;47997;-87
2023/07/12 13:16:02;;;;;;;;;0.00;0.00;;;;;30.15;27.01;101224.75;4894910;29;45324;-88
2023/07/12 13:18:28;;;;;;;;;0.00;0.00;;;;;30.32;26.70;101243.47;4895317;29;45545;-87
2023/07/12 13:20:55;;;;;;;;;0.00;0.00;;;;;30.27;26.21;101228.72;4894751;29;46390;-87
2023/07/12 13:23:23;;;;;;;;;0.00;0.00;;;;;30.23;26.18;101240.78;4893901;28;46453;-87
2023/07/12 13:25:50;;;;;;;;;2.67;0.67;;;;;30.20;25.99;101234.94;4884443;29;45542;-88
2023/07/12 13:28:16;;;;;;;;;0.00;0.00;;;;;30.24;26.47;101231.75;4895254;29;45411;-87
2023/07/12 13:30:41;;;;;;;;;0.00;0.00;;;;;30.16;26.62;101234.47;4883890;29;45660;-87
2023/07/12 13:33:13;;;;;;;;;0.67;0.67;;;;;30.05;26.96;101216.03;4887234;29;46142;-86
2023/07/12 13:35:39;;;;;;;;;0.00;0.00;;;;;30.12;26.31;101230.44;4884519;29;45435;-87
2023/07/12 13:38:09;;;;;;;;;0.00;0.00;;;;;30.17;26.63;101235.31;4890677;29;45589;-87
2023/07/12 13:40:34;;;;;;;;;1.00;1.00;;;;;30.12;26.07;101235.81;4896391;29;45378;-88
2023/07/12 13:42:59;;;;;;;;;0.33;0.33;;;;;29.99;26.12;101226.44;4897485;29;46459;-87
2023/07/12 13:45:28;;;;;;;;;1.67;0.00;;;;;29.93;26.13;101231.63;4893179;29;45490;-87
2023/07/12 13:47:53;;;;;;;;;1.00;0.00;;;;;29.93;26.09;101223.59;4900509;29;45448;-87
2023/07/12 13:50:19;;;;;;;;;0.33;0.00;;;;;29.95;26.20;101225.09;4897637;29;45474;-87
2023/07/12 13:52:44;;;;;;;;;0.00;0.00;;;;;30.04;26.38;101222.41;4891481;29;47074;-87
2023/07/12 13:55:17;;;;;;;;;0.00;0.00;;;;;30.07;25.82;101224.72;4881991;29;45342;-87
2023/07/12 13:57:45;;;;;;;;;1.00;0.00;;;;;30.15;26.46;101230.09;4884188;29;45419;-88
2023/07/12 14:00:15;;;;;;;;;0.33;0.00;;;;;30.17;25.61;101228.06;4899687;29;45586;-88
2023/07/12 14:02:41;;;;;;;;;0.00;0.00;;;;;30.09;25.22;101215.53;4896723;29;47222;-87
2023/07/12 14:05:08;;;;;;;;;0.00;0.00;;;;;30.11;25.77;101210.00;4893831;29;45620;-87
2023/07/12 14:07:37;;;;;;;;;0.00;0.00;;;;;30.16;25.68;101226.41;4898471;29;45470;-87
2023/07/12 14:10:05;;;;;;;;;0.00;0.00;;;;;30.20;25.81;101230.44;4900481;29;45240;-87
2023/07/12 14:12:30;;;;;;;;;0.00;0.00;;;;;30.25;25.90;101233.44;4884082;29;47171;-87
2023/07/12 14:14:56;;;;;;;;;0.00;0.00;;;;;30.31;25.28;101228.38;4886396;29;45727;-88
2023/07/12 14:17:26;;;;;;;;;0.00;0.00;;;;;30.35;25.28;101227.00;4879846;28;45646;-87
2023/07/12 14:25:06;;;;;;;;;0.67;0.00;;;;;30.52;25.46;101230.44;4900041;28;45352;-94
2023/07/12 14:27:33;;;;;;;;;0.00;0.00;;;;;30.59;25.14;101222.53;4896173;29;45431;-93
2023/07/12 14:30:00;;;;;;;;;0.67;0.00;;;;;30.60;25.41;101225.03;4892611;29;45480;-93
2023/07/12 14:32:33;;;;;;;;;0.00;0.00;;;;;30.64;24.43;101229.03;4895507;28;47063;-94
2023/07/12 14:35:02;;;;;;;;;0.00;0.00;;;;;30.52;24.57;101217.03;4894503;29;45625;-93
2023/07/12 14:37:28;;;;;;;;;0.00;0.00;;;;;30.47;24.51;101222.94;4895205;28;45267;-94
2023/07/12 14:39:54;;;;;;;;;0.00;0.00;;;;;30.39;24.68;101231.00;4897637;28;45351;-96
2023/07/12 14:42:26;;;;;;;;;0.00;0.00;;;;;30.26;24.67;101232.41;4898091;28;46627;-95
2023/07/12 14:44:52;;;;;;;;;0.00;0.00;;;;;30.15;24.42;101238.16;4898345;28;45618;-93
2023/07/12 14:47:18;;;;;;;;;0.00;0.00;;;;;30.00;24.91;101246.88;4895206;28;45656;-95
2023/07/12 14:49:45;;;;;;;;;0.00;0.00;;;;;29.84;24.77;101237.03;4896056;28;45661;-92
2023/07/12 14:52:31;;;;;;;;;0.00;0.00;;;;;29.62;24.50;101235.91;4898834;28;47189;-96
2023/07/12 14:54:59;;;;;;;;;0.00;0.00;;;;;29.47;24.83;101243.75;4899116;28;45626;-95
2023/07/12 14:57:26;;;;;;;;;1.00;0.00;;;;;29.35;25.02;101229.88;4899106;28;45459;-94
2023/07/12 14:59:52;;;;;;;;;0.33;0.00;;;;;29.35;24.62;101243.28;4896731;29;45449;-96
2023/07/12 15:02:26;;;;;;;;;1.00;0.00;;;;;29.27;24.92;101236.06;4895008;28;47204;-93
2023/07/12 15:04:57;;;;;;;;;0.00;0.00;;;;;29.17;25.12;101222.84;4892534;28;45406;-94
2023/07/12 15:07:29;;;;;;;;;0.00;0.00;;;;;29.15;25.31;101232.06;4895645;29;45669;-94
2023/07/12 15:09:56;;;;;;;;;0.67;0.67;;;;;29.10;25.62;101226.34;4894842;28;45477;-96
2023/07/12 15:12:34;;;;;;;;;0.00;0.00;;;;;29.06;25.46;101220.47;4894808;28;47201;-93
2023/07/12 15:15:01;;;;;;;;;0.00;0.00;;;;;29.06;25.68;101225.81;4894784;28;45523;-94
2023/07/12 15:17:27;;;;;;;;;0.00;0.00;;;;;29.08;25.21;101230.00;4899413;29;45427;-94
2023/07/12 15:19:53;;;;;;;;;1.00;0.00;;;;;29.08;26.03;101224.66;4912067;28;45411;-95
2023/07/12 15:22:20;;;;;;;;;0.00;0.00;;;;;29.17;25.18;101227.34;4893885;29;45791;-95
2023/07/12 15:24:45;;;;;;;;;0.00;0.00;;;;;29.16;25.08;101226.50;4904902;28;45132;-95
2023/07/12 15:27:16;;;;;;;;;1.00;0.00;;;;;29.14;25.55;101225.84;4918295;28;44796;-94
2023/07/12 15:29:43;;;;;;;;;0.67;0.00;;;;;29.14;25.58;101217.81;4915296;28;45487;-96
2023/07/12 15:32:10;;;;;;;;;0.00;0.00;;;;;29.04;25.18;101201.91;4898551;28;47419;-95
2023/07/12 15:34:36;;;;;;;;;0.00;0.00;;;;;29.07;24.78;101195.38;4900061;29;45380;-95
2023/07/12 15:37:01;;;;;;;;;0.00;0.00;;;;;29.11;25.48;101202.06;4898988;28;45463;-94
2023/07/12 15:39:26;;;;;;;;;0.00;0.00;;;;;29.02;25.54;101205.75;4901016;28;45426;-95
2023/07/12 15:41:52;;;;;;;;;2.00;0.33;;;;;28.96;25.33;101201.06;4914166;28;46796;-96
2023/07/12 15:44:18;;;;;;;;;0.00;0.00;;;;;28.93;25.39;101199.56;4900084;28;45431;-96
2023/07/12 15:46:44;;;;;;;;;0.00;0.00;;;;;28.75;25.62;101179.09;4902841;29;45347;-93
2023/07/12 15:49:09;;;;;;;;;1.00;0.00;;;;;28.90;25.38;101205.22;4897977;29;45566;-94
2023/07/12 15:51:43;;;;;;;;;0.00;0.00;;;;;28.88;25.48;101199.22;4882313;28;45346;-95
2023/07/12 15:54:17;;;;;;;;;0.00;0.00;;;;;28.78;25.38;101210.88;4899963;28;45363;-96
2023/07/12 15:56:43;;;;;;;;;0.00;0.00;;;;;28.63;25.57;101199.13;4900783;29;45327;-93
2023/07/12 15:59:09;;;;;;;;;1.00;0.00;;;;;28.51;25.61;101191.41;4900900;28;45470;-96
2023/07/12 16:01:36;;;;;;;;;0.00;0.00;;;;;28.52;25.81;101206.44;4899799;28;46912;-94
2023/07/12 16:04:02;;;;;;;;;1.00;1.00;;;;;28.53;26.27;101209.97;4895629;29;45537;-94
2023/07/12 16:06:28;;;;;;;;;0.00;0.00;;;;;28.51;25.68;101215.50;4897757;28;46251;-94
2023/07/12 16:08:54;;;;;;;;;0.00;0.00;;;;;28.50;25.81;101212.97;4899607;28;45577;-95
2023/07/12 16:11:32;;;;;;;;;0.00;0.00;;;;;28.38;26.07;101207.09;4898096;29;46627;-94
2023/07/12 16:13:59;;;;;;;;;0.67;0.00;;;;;28.23;25.78;101198.84;4891716;29;45494;-95
2023/07/12 16:16:26;;;;;;;;;0.00;0.00;;;;;28.21;25.86;101201.66;4897730;28;45711;-95